createdAt,value
2022-09-06T00:00:00.145Z,3.70
2022-09-06T00:05:03.959Z,3.97
2022-09-06T00:10:07.118Z,3.97
2022-09-06T00:15:10.552Z,7.72
2022-09-06T00:20:13.369Z,7.78
2022-09-06T00:25:16.257Z,8.60
2022-09-06T00:30:19.133Z,7.68
2022-09-06T00:35:24.990Z,5.18
2022-09-06T00:40:29.962Z,4.75
2022-09-06T00:45:32.998Z,3.67
2022-09-06T00:50:35.974Z,3.70
2022-09-06T00:55:39.288Z,4.38
2022-09-06T01:00:42.560Z,4.20
2022-09-06T01:06:02.028Z,3.95
2022-09-06T01:11:30.852Z,4.28
2022-09-06T01:16:44.036Z,4.72
2022-09-06T01:22:17.658Z,4.43
2022-09-06T01:27:40.083Z,4.20
2022-09-06T01:33:17.436Z,4.15
2022-09-06T01:38:20.297Z,3.85
2022-09-06T01:43:27.263Z,3.97
2022-09-06T01:48:32.975Z,3.80
2022-09-06T01:53:52.030Z,3.40
2022-09-06T01:59:07.045Z,3.40
2022-09-06T02:04:15.904Z,3.45
2022-09-06T02:09:22.657Z,3.80
2022-09-06T02:14:48.813Z,3.40
2022-09-06T02:20:04.837Z,3.40
2022-09-06T02:25:10.224Z,4.20
2022-09-06T02:30:13.331Z,3.70
2022-09-06T02:35:17.636Z,3.65
2022-09-06T02:40:20.942Z,4.07
2022-09-06T02:45:23.773Z,5.00
2022-09-06T02:50:26.627Z,5.38
2022-09-06T02:55:29.554Z,5.55
2022-09-06T03:00:33.031Z,5.45
2022-09-06T03:05:35.909Z,5.80
2022-09-06T03:10:38.837Z,6.15
2022-09-06T03:15:41.658Z,7.13
2022-09-06T03:20:44.549Z,6.55
2022-09-06T03:25:47.597Z,6.68
2022-09-06T03:30:51.870Z,6.78
2022-09-06T03:35:57.089Z,6.80
2022-09-06T03:40:59.929Z,6.65
2022-09-06T03:46:03.032Z,7.47
2022-09-06T03:51:06.055Z,7.03
2022-09-06T03:56:08.899Z,8.07
2022-09-06T04:01:12.970Z,7.70
2022-09-06T04:06:15.900Z,7.40
2022-09-06T04:11:18.918Z,7.57
2022-09-06T04:16:22.122Z,7.13
2022-09-06T04:21:25.092Z,6.30
2022-09-06T04:26:27.975Z,6.10
2022-09-06T04:31:30.973Z,5.90
2022-09-06T04:36:33.923Z,6.43
2022-09-06T04:41:36.766Z,6.10
2022-09-06T04:46:42.414Z,6.32
2022-09-06T04:51:45.290Z,6.47
2022-09-06T04:56:48.000Z,6.78
2022-09-06T05:01:50.954Z,6.30
2022-09-06T05:07:06.129Z,7.28
2022-09-06T05:12:09.016Z,7.53
2022-09-06T05:17:14.982Z,7.35
2022-09-06T05:22:17.966Z,8.00
2022-09-06T05:27:20.850Z,7.13
2022-09-06T05:32:23.655Z,7.00
2022-09-06T05:37:26.516Z,7.10
2022-09-06T05:42:29.330Z,7.57
2022-09-06T05:47:35.701Z,7.43
2022-09-06T05:52:39.699Z,6.20
2022-09-06T05:57:42.512Z,6.47
2022-09-06T06:02:48.852Z,8.30
2022-09-06T06:07:51.804Z,7.70
2022-09-06T06:12:54.762Z,6.97
2022-09-06T06:17:57.629Z,7.38
2022-09-06T06:23:00.483Z,6.28
2022-09-06T06:28:03.529Z,6.30
2022-09-06T06:33:06.286Z,6.15
2022-09-06T06:38:09.376Z,6.20
2022-09-06T06:43:12.327Z,6.15
2022-09-06T06:48:15.160Z,5.85
2022-09-06T06:53:18.014Z,6.03
2022-09-06T06:58:21.524Z,6.70
2022-09-06T07:03:24.339Z,6.30
2022-09-06T07:08:27.676Z,5.88
2022-09-06T07:13:32.268Z,6.20
2022-09-06T07:18:35.568Z,4.95
2022-09-06T07:29:03.204Z,5.38
2022-09-06T07:34:06.245Z,6.30
2022-09-06T07:39:09.127Z,5.32
2022-09-06T07:44:11.890Z,6.25
2022-09-06T07:49:14.850Z,5.18
2022-09-06T07:54:33.059Z,5.60
2022-09-06T07:59:38.969Z,5.80
2022-09-06T08:04:47.576Z,5.28
2022-09-06T08:09:52.549Z,6.15
2022-09-06T08:14:55.773Z,6.47
2022-09-06T08:19:58.753Z,5.30
2022-09-06T08:25:01.734Z,5.65
2022-09-06T08:30:06.682Z,6.22
2022-09-06T08:35:10.131Z,7.38
2022-09-06T08:40:20.800Z,5.50
2022-09-06T08:45:25.265Z,5.40
2022-09-06T08:50:29.055Z,4.93
2022-09-06T08:55:38.330Z,4.93
2022-09-06T09:00:43.670Z,5.80
2022-09-06T09:05:49.500Z,5.20
2022-09-06T09:11:05.347Z,5.25
2022-09-06T09:16:08.361Z,5.03
2022-09-06T09:21:11.360Z,5.20
2022-09-06T09:26:15.528Z,5.30
2022-09-06T09:31:38.060Z,4.72
2022-09-06T09:36:41.243Z,5.63
2022-09-06T09:41:44.188Z,6.40
2022-09-06T09:46:47.135Z,6.90
2022-09-06T09:52:07.977Z,11.48
2022-09-06T09:57:12.395Z,9.27
2022-09-06T10:08:13.234Z,8.65
2022-09-06T10:13:23.032Z,8.32
2022-09-06T10:18:41.240Z,8.40
2022-09-06T10:29:48.470Z,7.88
2022-09-06T10:35:00.147Z,7.55
2022-09-06T10:40:11.569Z,7.47
2022-09-06T10:45:30.000Z,9.00
2022-09-06T10:50:36.008Z,5.93
2022-09-06T10:55:40.626Z,6.25
2022-09-06T11:00:47.145Z,5.78
2022-09-06T11:05:55.121Z,5.82
2022-09-06T11:10:59.266Z,6.60
2022-09-06T11:16:05.577Z,8.60
2022-09-06T11:21:29.905Z,8.68
2022-09-06T11:26:54.561Z,9.30
2022-09-06T11:32:17.351Z,8.60
2022-09-06T11:37:34.726Z,9.45
2022-09-06T11:42:49.586Z,10.70
2022-09-06T11:47:53.553Z,11.90
2022-09-06T11:52:57.171Z,11.93
2022-09-06T11:58:01.136Z,12.48
2022-09-06T12:08:33.050Z,12.88
2022-09-06T12:13:48.580Z,14.03
2022-09-06T12:18:51.436Z,13.93
2022-09-06T12:23:54.274Z,13.07
2022-09-06T12:28:57.211Z,14.82
2022-09-06T12:34:08.305Z,14.40
2022-09-06T12:39:15.033Z,12.70
2022-09-06T12:44:28.384Z,14.32
2022-09-06T12:49:31.652Z,12.90
2022-09-06T12:54:34.604Z,13.07
2022-09-06T12:59:37.509Z,11.98
2022-09-06T13:04:46.972Z,10.10
2022-09-06T13:09:52.384Z,10.48
2022-09-06T13:14:56.571Z,11.65
2022-09-06T13:20:13.160Z,10.73
2022-09-06T13:25:23.529Z,10.38
2022-09-06T13:30:49.588Z,10.88
2022-09-06T13:36:08.693Z,13.00
2022-09-06T13:41:26.646Z,12.80
2022-09-06T13:46:29.668Z,13.15
2022-09-06T13:51:32.673Z,13.98
2022-09-06T13:56:36.032Z,13.15
2022-09-06T14:01:41.241Z,13.20
2022-09-06T14:06:44.235Z,13.70
2022-09-06T14:11:48.354Z,15.15
2022-09-06T14:16:51.551Z,12.77
2022-09-06T14:21:54.352Z,13.32
2022-09-06T14:26:57.512Z,12.68
2022-09-06T14:32:00.248Z,10.88
2022-09-06T14:37:03.062Z,11.82
2022-09-06T14:42:06.030Z,9.82
2022-09-06T14:47:08.975Z,9.57
2022-09-06T14:52:11.794Z,9.35
2022-09-06T14:57:14.504Z,9.45
2022-09-06T15:02:17.381Z,9.60
2022-09-06T15:07:20.369Z,9.30
2022-09-06T15:12:23.381Z,9.30
2022-09-06T15:17:26.109Z,9.55
2022-09-06T15:22:28.883Z,10.30
2022-09-06T15:27:32.342Z,10.20
2022-09-06T15:32:35.130Z,9.95
2022-09-06T15:37:37.863Z,10.20
2022-09-06T15:42:41.062Z,9.57
2022-09-06T15:47:43.762Z,10.18
2022-09-06T15:52:46.502Z,9.23
2022-09-06T15:57:49.318Z,9.27
2022-09-06T16:02:53.478Z,9.05
2022-09-06T16:07:59.534Z,8.55
2022-09-06T16:13:02.266Z,9.20
2022-09-06T16:18:05.729Z,8.20
2022-09-06T16:23:08.500Z,9.57
2022-09-06T16:28:11.313Z,8.68
2022-09-06T16:33:14.373Z,9.10
2022-09-06T16:38:17.187Z,9.35
2022-09-06T16:43:19.939Z,9.30
2022-09-06T16:48:22.750Z,8.35
2022-09-06T16:53:25.545Z,9.07
2022-09-06T16:58:30.355Z,9.10
2022-09-06T17:03:33.223Z,8.53
2022-09-06T17:08:37.000Z,9.02
2022-09-06T17:13:39.857Z,8.60
2022-09-06T17:18:43.319Z,8.20
2022-09-06T17:23:46.076Z,9.15
2022-09-06T17:28:50.181Z,8.93
2022-09-06T17:33:53.639Z,8.65
2022-09-06T17:39:08.131Z,8.93
2022-09-06T17:44:12.022Z,8.83
2022-09-06T17:49:15.357Z,8.63
2022-09-06T17:54:18.493Z,8.95
2022-09-06T17:59:21.404Z,9.00
2022-09-06T18:04:24.175Z,9.02
2022-09-06T18:09:27.009Z,8.52
2022-09-06T18:14:30.059Z,7.95
2022-09-06T18:19:33.122Z,8.30
2022-09-06T18:24:35.930Z,8.93
2022-09-06T18:29:38.709Z,8.05
2022-09-06T18:34:41.543Z,8.63
2022-09-06T18:39:44.603Z,8.50
2022-09-06T18:44:47.503Z,8.73
2022-09-06T18:49:50.286Z,8.85
2022-09-06T18:54:53.180Z,9.15
2022-09-06T18:59:55.892Z,9.25
2022-09-06T19:04:59.650Z,9.45
2022-09-06T19:10:02.416Z,10.32
2022-09-06T19:15:06.477Z,10.43
2022-09-06T19:20:11.066Z,9.90
2022-09-06T19:25:13.822Z,10.23
2022-09-06T19:30:16.592Z,10.55
2022-09-06T19:35:20.617Z,10.73
2022-09-06T19:40:23.456Z,11.40
2022-09-06T19:45:26.221Z,12.50
2022-09-06T19:50:28.971Z,12.93
2022-09-06T19:55:35.657Z,12.75
2022-09-06T20:00:41.437Z,13.48
2022-09-06T20:05:44.278Z,13.63
2022-09-06T20:10:57.935Z,13.55
2022-09-06T20:16:01.019Z,14.85
2022-09-06T20:21:04.416Z,15.15
2022-09-06T20:26:16.366Z,15.10
2022-09-06T20:31:21.056Z,15.38
2022-09-06T20:36:23.947Z,15.20
2022-09-06T20:41:27.805Z,15.32
2022-09-06T20:46:32.710Z,15.55
2022-09-06T20:51:36.652Z,16.80
2022-09-06T20:56:41.047Z,16.73
2022-09-06T21:01:46.350Z,17.27
2022-09-06T21:06:51.391Z,18.25
2022-09-06T21:11:54.691Z,17.38
2022-09-06T21:16:57.902Z,18.92
2022-09-06T21:22:01.240Z,18.63
2022-09-06T21:27:04.018Z,18.83
2022-09-06T21:32:06.927Z,19.75
2022-09-06T21:37:09.692Z,19.20
2022-09-06T21:42:12.467Z,18.77
2022-09-06T21:47:15.251Z,19.25
2022-09-06T21:52:18.035Z,18.85
2022-09-06T21:57:20.803Z,18.33
2022-09-06T22:02:24.024Z,17.65
2022-09-06T22:07:26.901Z,17.90
2022-09-06T22:12:29.710Z,16.67
2022-09-06T22:17:32.423Z,16.73
2022-09-06T22:22:35.560Z,16.92
2022-09-06T22:27:38.385Z,16.67
2022-09-06T22:32:41.419Z,16.23
2022-09-06T22:37:44.165Z,16.35
2022-09-06T22:42:47.258Z,17.38
2022-09-06T22:47:51.364Z,17.35
2022-09-06T22:52:54.357Z,16.85
2022-09-06T22:57:57.245Z,16.48
2022-09-06T23:03:00.009Z,17.40
2022-09-06T23:08:03.928Z,17.95
2022-09-06T23:13:08.228Z,17.38
2022-09-06T23:18:10.929Z,17.77
2022-09-06T23:23:14.051Z,17.60
2022-09-06T23:28:16.748Z,18.55
2022-09-06T23:33:19.463Z,18.13
2022-09-06T23:38:22.460Z,18.92
2022-09-06T23:43:25.175Z,18.55
2022-09-06T23:48:27.979Z,17.70
2022-09-06T23:53:31.191Z,18.83
2022-09-06T23:58:34.818Z,17.95
